createdAt,value
2023-04-23T00:01:10.913Z,10.40
2023-04-23T00:03:41.624Z,9.80
2023-04-23T00:06:11.345Z,10.60
2023-04-23T00:08:41.451Z,10.40
2023-04-23T00:11:10.283Z,10.90
2023-04-23T00:13:39.150Z,12.30
2023-04-23T00:16:08.027Z,11.50
2023-04-23T00:18:36.012Z,11.30
2023-04-23T00:21:04.170Z,14.00
2023-04-23T00:23:32.354Z,13.20
2023-04-23T00:26:00.439Z,12.60
2023-04-23T00:28:28.384Z,11.70
2023-04-23T00:30:56.461Z,12.50
2023-04-23T00:33:25.661Z,12.20
2023-04-23T00:35:53.726Z,10.70
2023-04-23T00:38:21.800Z,11.40
2023-04-23T00:40:50.476Z,11.10
2023-04-23T00:43:19.578Z,9.20
2023-04-23T00:45:48.408Z,9.20
2023-04-23T00:48:17.579Z,9.40
2023-04-23T00:50:46.618Z,9.50
2023-04-23T00:53:14.875Z,9.40
2023-04-23T00:55:43.007Z,9.70
2023-04-23T00:58:11.299Z,10.10
2023-04-23T01:00:46.514Z,10.30
2023-04-23T01:03:18.575Z,9.90
2023-04-23T01:05:48.089Z,10.00
2023-04-23T01:08:17.633Z,9.80
2023-04-23T01:10:47.476Z,9.00
2023-04-23T01:13:16.304Z,8.90
2023-04-23T01:15:45.462Z,9.80
2023-04-23T01:18:16.238Z,9.00
2023-04-23T01:20:44.336Z,8.80
2023-04-23T01:23:12.999Z,9.00
2023-04-23T01:25:41.298Z,8.90
2023-04-23T01:28:09.954Z,8.90
2023-04-23T01:30:39.285Z,11.40
2023-04-23T01:33:08.646Z,11.30
2023-04-23T01:35:37.360Z,12.30
2023-04-23T01:38:07.744Z,13.10
2023-04-23T01:40:35.845Z,13.30
2023-04-23T01:43:05.126Z,12.50
2023-04-23T01:45:33.607Z,12.90
2023-04-23T01:48:01.828Z,12.70
2023-04-23T01:50:31.177Z,13.40
2023-04-23T01:52:59.245Z,14.00
2023-04-23T01:55:27.623Z,14.60
2023-04-23T01:57:56.207Z,13.00
2023-04-23T02:00:24.291Z,12.90
2023-04-23T02:02:55.444Z,13.90
2023-04-23T02:05:25.705Z,13.30
2023-04-23T02:07:53.751Z,12.80
2023-04-23T02:10:21.991Z,13.90
2023-04-23T02:12:50.975Z,14.20
2023-04-23T02:15:21.544Z,13.40
2023-04-23T02:17:52.329Z,15.30
2023-04-23T02:20:25.351Z,15.30
2023-04-23T02:22:53.499Z,15.10
2023-04-23T02:25:22.092Z,14.40
2023-04-23T02:27:50.885Z,14.40
2023-04-23T02:30:19.103Z,12.90
2023-04-23T02:32:47.296Z,12.60
2023-04-23T02:35:15.487Z,11.80
2023-04-23T02:37:43.480Z,11.10
2023-04-23T02:40:12.138Z,11.20
2023-04-23T02:42:41.886Z,10.10
2023-04-23T02:45:12.303Z,10.40
2023-04-23T02:47:40.605Z,10.40
2023-04-23T02:50:09.037Z,11.00
2023-04-23T02:52:37.433Z,10.70
2023-04-23T02:55:07.298Z,10.60
2023-04-23T02:57:35.913Z,10.20
2023-04-23T03:00:07.214Z,11.30
2023-04-23T03:02:39.727Z,10.10
2023-04-23T03:05:08.720Z,10.00
2023-04-23T03:07:36.847Z,10.00
2023-04-23T03:10:05.776Z,12.90
2023-04-23T03:12:34.671Z,13.00
2023-04-23T03:15:03.286Z,12.20
2023-04-23T03:17:32.158Z,14.20
2023-04-23T03:20:00.220Z,12.60
2023-04-23T03:22:28.301Z,13.90
2023-04-23T03:24:56.932Z,13.30
2023-04-23T03:27:25.250Z,13.30
2023-04-23T03:29:53.529Z,13.00
2023-04-23T03:32:21.634Z,13.60
2023-04-23T03:34:49.865Z,14.60
2023-04-23T03:37:18.255Z,14.30
2023-04-23T03:39:46.978Z,13.60
2023-04-23T03:42:15.182Z,13.50
2023-04-23T03:44:44.001Z,13.40
2023-04-23T03:47:11.922Z,13.90
2023-04-23T03:49:40.753Z,12.80
2023-04-23T03:52:10.353Z,13.50
2023-04-23T03:54:41.810Z,12.80
2023-04-23T03:57:17.151Z,13.70
2023-04-23T04:00:08.321Z,13.40
2023-04-23T04:02:41.627Z,13.90
2023-04-23T04:05:11.512Z,13.90
2023-04-23T04:07:41.203Z,12.00
2023-04-23T04:10:09.887Z,13.00
2023-04-23T04:12:39.940Z,12.00
2023-04-23T04:15:11.382Z,10.90
2023-04-23T04:17:39.957Z,10.60
2023-04-23T04:20:09.425Z,12.40
2023-04-23T04:22:37.795Z,10.60
2023-04-23T04:25:06.995Z,11.50
2023-04-23T04:27:35.679Z,11.00
2023-04-23T04:30:05.708Z,11.20
2023-04-23T04:32:34.494Z,10.80
2023-04-23T04:35:02.874Z,11.30
2023-04-23T04:37:32.263Z,10.80
2023-04-23T04:40:01.656Z,12.00
2023-04-23T04:42:29.755Z,10.00
2023-04-23T04:44:59.631Z,9.80
2023-04-23T04:47:27.832Z,9.90
2023-04-23T04:49:57.726Z,11.90
2023-04-23T04:52:25.973Z,12.30
2023-04-23T04:54:54.395Z,13.10
2023-04-23T04:57:23.189Z,12.00
2023-04-23T04:59:51.647Z,11.50
2023-04-23T05:02:21.738Z,10.90
2023-04-23T05:04:50.255Z,11.00
2023-04-23T05:07:18.334Z,11.00
2023-04-23T05:09:46.285Z,10.80
2023-04-23T05:12:14.258Z,9.50
2023-04-23T05:14:42.551Z,8.60
2023-04-23T05:17:11.768Z,8.30
2023-04-23T05:19:39.791Z,8.40
2023-04-23T05:22:08.078Z,8.30
2023-04-23T05:24:36.210Z,8.70
2023-04-23T05:27:06.472Z,10.10
2023-04-23T05:29:34.636Z,9.80
2023-04-23T05:32:02.754Z,11.20
2023-04-23T05:34:30.730Z,9.50
2023-04-23T05:36:58.733Z,10.80
2023-04-23T05:39:27.025Z,10.40
2023-04-23T05:41:55.044Z,10.70
2023-04-23T05:44:23.062Z,10.00
2023-04-23T05:46:50.980Z,9.90
2023-04-23T05:49:19.002Z,9.50
2023-04-23T05:51:47.176Z,10.00
2023-04-23T05:54:15.238Z,8.50
2023-04-23T05:56:43.200Z,9.30
2023-04-23T05:59:11.553Z,9.40
2023-04-23T06:01:39.652Z,8.70
2023-04-23T06:04:08.546Z,9.70
2023-04-23T06:06:36.924Z,8.10
2023-04-23T06:09:04.948Z,8.40
2023-04-23T06:11:33.507Z,8.10
2023-04-23T06:14:04.991Z,8.40
2023-04-23T06:16:33.027Z,9.50
2023-04-23T06:19:01.264Z,9.30
2023-04-23T06:21:29.260Z,8.80
2023-04-23T06:23:57.416Z,8.40
2023-04-23T06:26:25.774Z,8.40
2023-04-23T06:28:55.269Z,9.10
2023-04-23T06:31:43.699Z,9.30
2023-04-23T06:34:11.900Z,9.20
2023-04-23T06:36:40.172Z,8.90
2023-04-23T06:39:08.743Z,8.40
2023-04-23T06:41:36.702Z,8.90
2023-04-23T06:44:11.366Z,9.50
2023-04-23T06:46:49.411Z,8.90
2023-04-23T06:49:17.971Z,8.90
2023-04-23T06:51:46.225Z,9.20
2023-04-23T06:54:14.245Z,8.70
2023-04-23T06:56:42.181Z,9.20
2023-04-23T06:59:10.216Z,9.90
2023-04-23T07:01:45.351Z,10.70
2023-04-23T07:04:13.479Z,9.50
2023-04-23T07:06:41.503Z,10.40
2023-04-23T07:09:09.873Z,9.10
2023-04-23T07:11:37.972Z,9.60
2023-04-23T07:14:06.645Z,9.40
2023-04-23T07:16:35.262Z,9.10
2023-04-23T07:19:03.435Z,9.00
2023-04-23T07:21:33.266Z,10.50
2023-04-23T07:24:07.328Z,9.00
2023-04-23T07:26:36.023Z,9.80
2023-04-23T07:29:06.777Z,9.70
2023-04-23T07:31:35.544Z,10.00
2023-04-23T07:34:04.266Z,9.20
2023-04-23T07:36:32.617Z,10.40
2023-04-23T07:39:00.671Z,10.00
2023-04-23T07:41:28.857Z,10.20
2023-04-23T07:43:57.370Z,9.80
2023-04-23T07:46:25.659Z,10.60
2023-04-23T07:48:53.876Z,9.60
2023-04-23T07:51:26.666Z,10.60
2023-04-23T07:53:54.828Z,11.10
2023-04-23T07:56:24.803Z,10.70
2023-04-23T07:58:54.271Z,10.10
2023-04-23T08:01:22.414Z,11.30
2023-04-23T08:03:50.477Z,10.10
2023-04-23T08:06:18.802Z,11.00
2023-04-23T08:08:46.805Z,10.00
2023-04-23T08:11:14.803Z,10.00
2023-04-23T08:13:42.925Z,10.00
2023-04-23T08:16:11.120Z,9.00
2023-04-23T08:18:39.842Z,9.20
2023-04-23T08:21:08.356Z,8.30
2023-04-23T08:23:36.585Z,9.90
2023-04-23T08:26:04.761Z,8.80
2023-04-23T08:28:32.710Z,9.20
2023-04-23T08:31:01.888Z,9.50
2023-04-23T08:33:30.849Z,8.70
2023-04-23T08:35:58.745Z,8.50
2023-04-23T08:38:26.909Z,8.50
2023-04-23T08:40:58.070Z,9.10
2023-04-23T08:43:37.452Z,8.30
2023-04-23T08:46:05.864Z,7.80
2023-04-23T08:48:35.549Z,9.10
2023-04-23T08:51:05.732Z,8.50
2023-04-23T08:53:33.969Z,8.20
2023-04-23T08:56:03.944Z,8.30
2023-04-23T08:58:33.236Z,8.40
2023-04-23T09:01:02.034Z,8.40
2023-04-23T09:03:30.581Z,7.70
2023-04-23T09:05:59.287Z,7.80
2023-04-23T09:08:27.369Z,8.20
2023-04-23T09:11:01.557Z,8.60
2023-04-23T09:13:34.040Z,9.20
2023-04-23T09:16:02.226Z,8.30
2023-04-23T09:18:30.703Z,7.80
2023-04-23T09:21:01.435Z,7.30
2023-04-23T09:23:29.396Z,7.10
2023-04-23T09:25:57.776Z,6.80
2023-04-23T09:28:38.464Z,6.90
2023-04-23T09:31:07.025Z,7.10
2023-04-23T09:33:37.252Z,6.40
2023-04-23T09:36:10.997Z,5.90
2023-04-23T09:38:41.584Z,5.60
2023-04-23T09:41:22.960Z,7.00
2023-04-23T09:43:56.365Z,6.50
2023-04-23T09:46:43.079Z,6.40
2023-04-23T09:49:12.797Z,5.60
2023-04-23T09:51:43.231Z,6.70
2023-04-23T09:54:21.878Z,5.70
2023-04-23T09:56:53.948Z,5.50
2023-04-23T09:59:39.549Z,6.00
2023-04-23T10:02:15.484Z,6.10
2023-04-23T10:04:44.181Z,6.20
2023-04-23T10:07:20.105Z,6.00
2023-04-23T10:09:48.734Z,5.80
2023-04-23T10:14:51.022Z,7.00
2023-04-23T10:17:19.186Z,6.00
2023-04-23T10:19:50.128Z,5.80
2023-04-23T10:22:20.916Z,5.80
2023-04-23T10:24:56.533Z,4.90
2023-04-23T10:27:44.700Z,4.80
2023-04-23T10:30:19.098Z,4.30
2023-04-23T10:32:48.887Z,3.50
2023-04-23T10:35:17.831Z,3.50
2023-04-23T10:37:48.421Z,3.60
2023-04-23T10:40:24.685Z,3.80
2023-04-23T10:42:53.766Z,3.40
2023-04-23T10:45:25.416Z,3.40
2023-04-23T10:47:58.180Z,3.40
2023-04-23T10:50:28.757Z,3.60
2023-04-23T10:52:58.345Z,3.50
2023-04-23T10:55:28.889Z,3.40
